Strona główna
METAR-TAF:

METAR-TAF

Lotnisko :

Dubaj, Zjednoczone Emiraty Arabskie

Port lotniczy Dubaj

Szerokość geograficzna: 25-15-10N, Długość geograficzna: 055-21-52E, wysokość: 8 m

Aktualna obserwacja pogody

Raport powstał 48 minut temu, godzina 17:00 UTC
Wiatr 5 kt od południowy zachód
Temperatura 20°C
Wilgotność 60%
Ciśnienie 1015 hPa
Widzialność 10 km lub więcej
Rozproszone chmury na wysokości 3500 ft

METAR: OMDB 171700Z 22005KT 9999 SCT035 20/12 Q1015 NOSIG

czas: 21:48 (17:48 UTC)

Prognoza

Raport powstał 54 minut temu, godzina 16:54 UTC
Prognoza ważna od 17 godzina 18 UTC do 19 godzina 00 UTC
Wiatr 5 kt od południowo-południowy zachód
Widzialność: 8000 m
Rozproszone chmury na wysokości 3000 ft
Stopniowe zmiany
od 18 godzina 07 UTC do 18 godzina 09 UTC
Wiatr 10 kt od zachód
Stopniowe zmiany
od 18 godzina 15 UTC do 18 godzina 17 UTC
Wiatr 5 kt od południe

TAF: OMDB 171654Z 1718/1900 20005KT 8000 SCT030 BECMG 1807/1809 28010KT BECMG 1815/1817 18005KT

Obserwacja i prognoza pogody dla ponad 4000 lotnisk (raport METAR i TAF).

Dostępne stacje oznaczono żółtymi i czerwonymi punktami na mapie.

Najedź kursorem aby zobaczyć nazwę stacji.

Kliknij aby zobaczyć obserwacje i prognozy pogody.

Aby zmienić mapę: kliknij na zielony przycisk z czarnym krzyżykiem, aby powiększyć; na zielony przycisk z myślnikiem, aby pomniejszyć; na zielone strzałki, aby przejść do map sąsiednich.


METAR-TAF: